Dartmouth, Canada
Current Conditions -  °F | °C
As of 5:00 PM on Thursday 20 Nov 2014 (Local Time) from CYAW Reporting Station
Broken Clouds Broken Clouds  
Wind Chill: 37°   Ceiling: 21000
Heat Index: 43°   Visibility: 15mi
Dew Point: 41°   Wind: 10mph
Humidity: 93%   Direction: 200°SSW
Pressure: 29.8"   Gusts: NA
Location:  44.67°N, 63.58°W
Report Text: CYAW 202100Z 20009KT 15SM FEW040 FEW100 BKN210 06/05 A2980 RMK SC2AC1CI2 DA-645FT SLP094
Loading
Personal Weather Stations






























Interactive Weather Map New forecast layout! Learn more

10-Day Weather Forecast

Advertisements
Track Severe Weather on mobile